createdAt,value
2018-05-09T00:00:09.570Z,1002.45
2018-05-09T00:00:35.739Z,1002.44
2018-05-09T00:01:01.924Z,1002.5
2018-05-09T00:01:28.068Z,1002.44
2018-05-09T00:01:54.234Z,1002.46
2018-05-09T00:02:20.376Z,1002.44
2018-05-09T00:02:46.516Z,1002.43
2018-05-09T00:03:12.657Z,1002.42
2018-05-09T00:03:38.804Z,1002.42
2018-05-09T00:04:04.943Z,1002.41
2018-05-09T00:04:31.082Z,1002.41
2018-05-09T00:04:57.228Z,1002.41
2018-05-09T00:05:23.365Z,1002.41
2018-05-09T00:05:49.511Z,1002.41
2018-05-09T00:06:15.649Z,1002.4
2018-05-09T00:06:41.809Z,1002.38
2018-05-09T00:07:07.948Z,1002.41
2018-05-09T00:07:34.096Z,1002.42
2018-05-09T00:08:00.232Z,1002.39
2018-05-09T00:08:26.368Z,1002.38
2018-05-09T00:08:52.504Z,1002.39
2018-05-09T00:09:18.674Z,1002.38
2018-05-09T00:09:44.812Z,1002.4
2018-05-09T00:10:10.979Z,1002.39
2018-05-09T00:10:37.141Z,1002.4
2018-05-09T00:11:03.278Z,1002.41
2018-05-09T00:11:29.420Z,1002.41
2018-05-09T00:11:55.628Z,1002.41
2018-05-09T00:12:21.730Z,1002.41
2018-05-09T00:12:47.872Z,1002.41
2018-05-09T00:13:14.039Z,1002.41
2018-05-09T00:13:40.174Z,1002.38
2018-05-09T00:14:06.313Z,1002.4
2018-05-09T00:14:32.456Z,1002.39
2018-05-09T00:14:58.618Z,1002.41
2018-05-09T00:15:24.760Z,1002.43
2018-05-09T00:15:50.923Z,1002.42
2018-05-09T00:16:17.065Z,1002.41
2018-05-09T00:16:43.202Z,1002.44
2018-05-09T00:17:09.369Z,1002.44
2018-05-09T00:17:35.510Z,1002.41
2018-05-09T00:18:01.669Z,1002.41
2018-05-09T00:18:27.808Z,1002.43
2018-05-09T00:18:53.945Z,1002.44
2018-05-09T00:19:20.087Z,1002.41
2018-05-09T00:19:46.232Z,1002.42
2018-05-09T00:20:12.398Z,1002.43
2018-05-09T00:20:38.547Z,1002.42
2018-05-09T00:21:04.703Z,1002.46
2018-05-09T00:21:30.849Z,1002.47
2018-05-09T00:21:57.015Z,1002.42
2018-05-09T00:22:23.167Z,1002.42
2018-05-09T00:22:49.325Z,1002.43
2018-05-09T00:23:15.469Z,1002.43
2018-05-09T00:23:41.626Z,1002.42
2018-05-09T00:24:07.790Z,1002.42
2018-05-09T00:24:33.958Z,1002.43
2018-05-09T00:25:00.095Z,1002.39
2018-05-09T00:25:26.243Z,1002.42
2018-05-09T00:25:52.402Z,1002.4
2018-05-09T00:26:18.547Z,1002.39
2018-05-09T00:26:44.710Z,1002.37
2018-05-09T00:27:10.865Z,1002.4
2018-05-09T00:27:37.008Z,1002.38
2018-05-09T00:28:03.152Z,1002.4
2018-05-09T00:28:29.287Z,1002.37
2018-05-09T00:28:55.431Z,1002.38
2018-05-09T00:29:21.582Z,1002.38
2018-05-09T00:29:47.717Z,1002.38
2018-05-09T00:30:13.864Z,1002.35
2018-05-09T00:30:39.997Z,1002.39
2018-05-09T00:31:06.157Z,1002.36
2018-05-09T00:31:32.328Z,1002.37
2018-05-09T00:31:58.467Z,1002.34
2018-05-09T00:32:24.637Z,1002.37
2018-05-09T00:32:50.780Z,1002.36
2018-05-09T00:33:16.921Z,1002.33
2018-05-09T00:33:43.062Z,1002.36
2018-05-09T00:34:09.227Z,1002.36
2018-05-09T00:34:35.362Z,1002.32
2018-05-09T00:35:01.533Z,1002.31
2018-05-09T00:35:27.669Z,1002.31
2018-05-09T00:35:53.813Z,1002.3
2018-05-09T00:36:19.955Z,1002.31
2018-05-09T00:36:46.093Z,1002.32
2018-05-09T00:37:12.234Z,1002.31
2018-05-09T00:37:38.368Z,1002.33
2018-05-09T00:38:04.509Z,1002.33
2018-05-09T00:38:30.646Z,1002.31
2018-05-09T00:38:56.790Z,1002.32
2018-05-09T00:39:22.928Z,1002.32
2018-05-09T00:39:49.077Z,1002.32
2018-05-09T00:40:15.237Z,1002.31
2018-05-09T00:40:41.366Z,1002.29
2018-05-09T00:41:07.505Z,1002.3
2018-05-09T00:41:33.655Z,1002.29
2018-05-09T00:41:59.813Z,1002.29
2018-05-09T00:42:25.957Z,1002.29
2018-05-09T00:42:52.095Z,1002.33
2018-05-09T00:43:18.232Z,1002.31
2018-05-09T00:43:44.377Z,1002.28
2018-05-09T00:44:10.519Z,1002.29
2018-05-09T00:44:36.655Z,1002.29
2018-05-09T00:45:02.825Z,1002.29
2018-05-09T00:45:28.967Z,1002.29
2018-05-09T00:45:55.102Z,1002.31
2018-05-09T00:46:21.240Z,1002.29
2018-05-09T00:46:47.396Z,1002.32
2018-05-09T00:47:13.538Z,1002.29
2018-05-09T00:47:39.718Z,1002.31
2018-05-09T00:48:05.887Z,1002.25
2018-05-09T00:48:32.030Z,1002.28
2018-05-09T00:48:58.191Z,1002.28
2018-05-09T00:49:24.345Z,1002.27
2018-05-09T00:49:50.489Z,1002.26
2018-05-09T00:50:16.776Z,1002.25
2018-05-09T00:50:42.792Z,1002.25
2018-05-09T00:51:08.929Z,1002.22
2018-05-09T00:51:35.103Z,1002.21
2018-05-09T00:52:01.209Z,1002.19
2018-05-09T00:52:27.352Z,1002.27
2018-05-09T00:52:53.497Z,1002.25
2018-05-09T00:53:19.630Z,1002.22
2018-05-09T00:53:45.791Z,1002.22
2018-05-09T00:54:11.931Z,1002.23
2018-05-09T00:54:38.071Z,1002.26
2018-05-09T00:55:04.220Z,1002.24
2018-05-09T00:55:30.360Z,1002.22
2018-05-09T00:55:56.499Z,1002.21
2018-05-09T00:56:22.658Z,1002.23
2018-05-09T00:56:48.798Z,1002.25
2018-05-09T00:57:14.944Z,1002.23
2018-05-09T00:57:41.111Z,1002.25
2018-05-09T00:58:07.244Z,1002.21
2018-05-09T00:58:33.378Z,1002.19
2018-05-09T00:58:59.523Z,1002.22
2018-05-09T00:59:25.671Z,1002.22
2018-05-09T00:59:51.797Z,1002.21
2018-05-09T01:00:17.960Z,1002.23
2018-05-09T01:00:44.103Z,1002.17
2018-05-09T01:01:10.233Z,1002.16
2018-05-09T01:01:36.426Z,1002.17
2018-05-09T01:02:02.562Z,1002.19
2018-05-09T01:02:28.706Z,1002.17
2018-05-09T01:02:54.842Z,1002.18
2018-05-09T01:03:20.980Z,1002.17
2018-05-09T01:03:47.119Z,1002.18
2018-05-09T01:04:13.264Z,1002.15
2018-05-09T01:04:39.400Z,1002.17
2018-05-09T01:05:05.551Z,1002.16
2018-05-09T01:05:31.685Z,1002.13
2018-05-09T01:05:57.856Z,1002.11
2018-05-09T01:06:23.986Z,1002.12
2018-05-09T01:06:50.131Z,1002.11
2018-05-09T01:07:16.289Z,1002.15
2018-05-09T01:07:42.422Z,1002.13
2018-05-09T01:08:08.572Z,1002.12
2018-05-09T01:08:34.717Z,1002.12
2018-05-09T01:09:00.855Z,1002.13
2018-05-09T01:09:26.983Z,1002.11
2018-05-09T01:09:53.151Z,1002.09
2018-05-09T01:10:19.282Z,1002.09
2018-05-09T01:10:45.419Z,1002.11
2018-05-09T01:11:11.557Z,1002.11
2018-05-09T01:11:37.699Z,1002.09
2018-05-09T01:12:03.863Z,1002.09
2018-05-09T01:12:30.053Z,1002.08
2018-05-09T01:12:56.217Z,1002.09
2018-05-09T01:13:22.384Z,1002.12
2018-05-09T01:13:48.520Z,1002.1
2018-05-09T01:14:14.659Z,1002.1
2018-05-09T01:14:40.808Z,1002.12
2018-05-09T01:15:06.939Z,1002.08
2018-05-09T01:15:33.136Z,1002.12
2018-05-09T01:15:59.271Z,1002.07
2018-05-09T01:16:25.415Z,1002.1
2018-05-09T01:16:51.551Z,1002.1
2018-05-09T01:17:17.715Z,1002.08
2018-05-09T01:17:43.884Z,1002.11
2018-05-09T01:18:10.045Z,1002.09
2018-05-09T01:18:36.186Z,1002.11
2018-05-09T01:19:02.330Z,1002.1
2018-05-09T01:19:28.468Z,1002.08
2018-05-09T01:19:54.629Z,1002.09
2018-05-09T01:20:20.768Z,1002.16
2018-05-09T01:20:46.899Z,1002.12
2018-05-09T01:21:13.068Z,1002.1
2018-05-09T01:21:39.206Z,1002.15
2018-05-09T01:22:05.342Z,1002.09
2018-05-09T01:22:31.482Z,1002.15
2018-05-09T01:22:57.640Z,1002.11
2018-05-09T01:23:23.803Z,1002.14
2018-05-09T01:23:49.947Z,1002.18
2018-05-09T01:24:16.111Z,1002.11
2018-05-09T01:24:42.247Z,1002.13
2018-05-09T01:25:08.386Z,1002.15
2018-05-09T01:25:34.521Z,1002.15
2018-05-09T01:26:00.665Z,1002.15
2018-05-09T01:26:26.799Z,1002.13
2018-05-09T01:26:52.962Z,1002.18
2018-05-09T01:27:19.133Z,1002.18
2018-05-09T01:27:45.265Z,1002.18
2018-05-09T01:28:11.403Z,1002.12
2018-05-09T01:28:37.564Z,1002.13
2018-05-09T01:29:03.729Z,1002.18
2018-05-09T01:29:29.864Z,1002.15
2018-05-09T01:29:56.006Z,1002.11
2018-05-09T01:30:22.144Z,1002.15
2018-05-09T01:30:48.283Z,1002.14
2018-05-09T01:31:14.453Z,1002.15
2018-05-09T01:31:40.625Z,1002.13
2018-05-09T01:32:06.759Z,1002.16
2018-05-09T01:32:32.907Z,1002.14
2018-05-09T01:32:59.050Z,1002.15
2018-05-09T01:33:25.186Z,1002.13
2018-05-09T01:33:51.327Z,1002.15
2018-05-09T01:34:17.465Z,1002.13
2018-05-09T01:34:43.606Z,1002.1
2018-05-09T01:35:09.744Z,1002.09
2018-05-09T01:35:35.892Z,1002.12
2018-05-09T01:36:02.017Z,1002.1
2018-05-09T01:36:28.185Z,1002.11
2018-05-09T01:36:54.352Z,1002.15
2018-05-09T01:37:20.494Z,1002.11
2018-05-09T01:37:46.631Z,1002.11
2018-05-09T01:38:12.794Z,1002.15
2018-05-09T01:38:38.934Z,1002.09
2018-05-09T01:39:05.091Z,1002.08
2018-05-09T01:39:31.262Z,1002.05
2018-05-09T01:39:57.423Z,1002.07
2018-05-09T01:40:23.564Z,1002.08
2018-05-09T01:40:49.700Z,1002.07
2018-05-09T01:41:15.845Z,1002.08
2018-05-09T01:41:42.001Z,1002.04
2018-05-09T01:42:08.145Z,1002.06
2018-05-09T01:42:34.307Z,1002.05
2018-05-09T01:43:00.447Z,1002.03
2018-05-09T01:43:26.590Z,1002.03
2018-05-09T01:43:52.752Z,1002.08
2018-05-09T01:44:18.919Z,1002.01
2018-05-09T01:44:45.104Z,1002
2018-05-09T01:45:11.248Z,1002
2018-05-09T01:45:37.386Z,1002.03
2018-05-09T01:46:03.532Z,1002
2018-05-09T01:46:29.688Z,1001.98
2018-05-09T01:46:55.828Z,1001.99
2018-05-09T01:47:21.975Z,1001.98
2018-05-09T01:47:48.108Z,1001.99
2018-05-09T01:48:14.287Z,1002.01
2018-05-09T01:48:40.429Z,1002.01
2018-05-09T01:49:06.561Z,1001.99
2018-05-09T01:49:32.695Z,1001.99
2018-05-09T01:49:58.836Z,1002.01
2018-05-09T01:50:24.971Z,1002.02
2018-05-09T01:50:51.109Z,1001.99
2018-05-09T01:51:17.275Z,1001.99
2018-05-09T01:51:43.415Z,1001.98
2018-05-09T01:52:09.551Z,1001.96
2018-05-09T01:52:35.693Z,1001.99
2018-05-09T01:53:01.835Z,1001.98
2018-05-09T01:53:27.979Z,1001.99
2018-05-09T01:53:54.149Z,1001.93
2018-05-09T01:54:20.317Z,1001.97
2018-05-09T01:54:46.460Z,1001.98
2018-05-09T01:55:12.592Z,1001.98
2018-05-09T01:55:38.733Z,1001.96
2018-05-09T01:56:04.873Z,1001.99
2018-05-09T01:56:31.036Z,1001.98
2018-05-09T01:56:57.184Z,1001.96
2018-05-09T01:57:23.318Z,1001.96
2018-05-09T01:57:49.462Z,1001.96
2018-05-09T01:58:15.602Z,1001.96
2018-05-09T01:58:41.736Z,1001.91
2018-05-09T01:59:07.876Z,1001.94
2018-05-09T01:59:34.019Z,1001.93
2018-05-09T02:00:00.176Z,1001.95
2018-05-09T02:00:26.315Z,1001.94
2018-05-09T02:00:52.450Z,1001.95
2018-05-09T02:01:18.591Z,1001.94
2018-05-09T02:01:44.724Z,1001.97
2018-05-09T02:02:10.870Z,1001.98
2018-05-09T02:02:37.003Z,1001.95
2018-05-09T02:03:03.145Z,1001.97
2018-05-09T02:03:29.288Z,1001.95
2018-05-09T02:03:55.464Z,1001.98
2018-05-09T02:04:21.604Z,1002
2018-05-09T02:04:47.741Z,1002.02
2018-05-09T02:05:13.880Z,1002.06
2018-05-09T02:05:40.019Z,1002.02
2018-05-09T02:06:06.165Z,1002.06
2018-05-09T02:06:32.293Z,1002.06
2018-05-09T02:06:58.432Z,1002.02
2018-05-09T02:07:24.571Z,1002.05
2018-05-09T02:07:50.709Z,1002.03
2018-05-09T02:08:16.850Z,1002.05
2018-05-09T02:08:42.987Z,1002.03
2018-05-09T02:09:09.127Z,1002.05
2018-05-09T02:09:35.270Z,1002.05
2018-05-09T02:10:01.409Z,1002.08
2018-05-09T02:10:27.542Z,1002.08
2018-05-09T02:10:53.687Z,1002.1
2018-05-09T02:11:19.821Z,1002.08
2018-05-09T02:11:45.961Z,1002.09
2018-05-09T02:12:12.096Z,1002.08
2018-05-09T02:12:38.245Z,1002.12
2018-05-09T02:13:04.388Z,1002.14
2018-05-09T02:13:30.530Z,1002.1
2018-05-09T02:13:56.660Z,1002.17
2018-05-09T02:14:22.829Z,1002.15
2018-05-09T02:14:48.963Z,1002.13
2018-05-09T02:15:15.105Z,1002.13
2018-05-09T02:15:41.272Z,1002.11
2018-05-09T02:16:07.425Z,1002.15
2018-05-09T02:16:33.569Z,1002.12
2018-05-09T02:16:59.712Z,1002.12
2018-05-09T02:17:25.848Z,1002.12
2018-05-09T02:17:51.992Z,1002.12
2018-05-09T02:18:18.126Z,1002.08
2018-05-09T02:18:44.285Z,1002.08
2018-05-09T02:19:10.448Z,1002.1
2018-05-09T02:19:36.606Z,1002.06
2018-05-09T02:20:02.751Z,1002.11
2018-05-09T02:20:28.894Z,1002.07
2018-05-09T02:20:55.036Z,1002.06
2018-05-09T02:21:21.181Z,1002.08
2018-05-09T02:21:47.316Z,1002.1
2018-05-09T02:22:13.460Z,1002.09
2018-05-09T02:22:39.594Z,1002.06
2018-05-09T02:23:05.760Z,1002.07
2018-05-09T02:23:31.897Z,1002.07
2018-05-09T02:23:58.046Z,1002.07
2018-05-09T02:24:24.180Z,1002.05
2018-05-09T02:24:50.318Z,1002.03
2018-05-09T02:25:16.513Z,1002.02
2018-05-09T02:25:42.670Z,1002.04
2018-05-09T02:26:08.809Z,1002.01
2018-05-09T02:26:34.976Z,1002.07
2018-05-09T02:27:01.112Z,1002.05
2018-05-09T02:27:27.275Z,1002.01
2018-05-09T02:27:53.420Z,1002
2018-05-09T02:28:19.589Z,1002.04
2018-05-09T02:28:45.755Z,1002.02
2018-05-09T02:29:11.886Z,1002.05
2018-05-09T02:29:38.029Z,1002.06
2018-05-09T02:30:04.171Z,1002
2018-05-09T02:30:30.331Z,1002.02
2018-05-09T02:30:56.528Z,1001.98
2018-05-09T02:31:22.650Z,1002.01
2018-05-09T02:31:48.810Z,1001.99
2018-05-09T02:32:14.945Z,1001.97
2018-05-09T02:32:41.082Z,1001.99
2018-05-09T02:33:07.235Z,1002
2018-05-09T02:33:33.439Z,1001.99
2018-05-09T02:33:59.630Z,1001.98
2018-05-09T02:34:25.810Z,1001.97
2018-05-09T02:34:51.969Z,1001.95
2018-05-09T02:35:18.112Z,1001.99
2018-05-09T02:35:44.249Z,1001.99
2018-05-09T02:36:10.407Z,1001.99
2018-05-09T02:36:36.571Z,1001.98
2018-05-09T02:37:02.765Z,1001.97
2018-05-09T02:37:28.920Z,1001.97
2018-05-09T02:37:55.093Z,1001.94
2018-05-09T02:38:21.241Z,1001.99
2018-05-09T02:38:47.396Z,1001.99
2018-05-09T02:39:13.546Z,1001.95
2018-05-09T02:39:39.699Z,1001.96
2018-05-09T02:40:05.869Z,1001.93
2018-05-09T02:40:31.999Z,1001.93
2018-05-09T02:40:58.216Z,1001.95
2018-05-09T02:41:24.375Z,1001.96
2018-05-09T02:41:50.542Z,1001.93
2018-05-09T02:42:16.689Z,1001.91
2018-05-09T02:42:42.871Z,1001.91
2018-05-09T02:43:09.008Z,1001.88
2018-05-09T02:43:35.154Z,1001.93
2018-05-09T02:44:01.307Z,1001.9
2018-05-09T02:44:27.475Z,1001.9
2018-05-09T02:44:53.643Z,1001.91
2018-05-09T02:45:19.820Z,1001.92
2018-05-09T02:45:46.025Z,1001.92
2018-05-09T02:46:12.184Z,1001.91
2018-05-09T02:46:38.373Z,1001.92
2018-05-09T02:47:04.533Z,1001.99
2018-05-09T02:47:30.750Z,1001.94
2018-05-09T02:47:56.932Z,1001.93
2018-05-09T02:48:23.093Z,1001.9
2018-05-09T02:48:49.247Z,1001.94
2018-05-09T02:49:15.445Z,1001.93
2018-05-09T02:49:41.585Z,1001.92
2018-05-09T02:50:07.725Z,1001.97
2018-05-09T02:50:33.873Z,1001.91
2018-05-09T02:51:00.051Z,1001.94
2018-05-09T02:51:26.220Z,1001.92
2018-05-09T02:51:52.368Z,1001.94
2018-05-09T02:52:18.518Z,1001.93
2018-05-09T02:52:44.660Z,1001.91
2018-05-09T02:53:10.797Z,1001.93
2018-05-09T02:53:36.945Z,1001.91
2018-05-09T02:54:03.096Z,1001.94
2018-05-09T02:54:29.257Z,1001.96
2018-05-09T02:54:55.406Z,1001.96
2018-05-09T02:55:21.547Z,1001.93
2018-05-09T02:55:47.696Z,1001.93
2018-05-09T02:56:13.864Z,1001.94
2018-05-09T02:56:40.003Z,1001.95
2018-05-09T02:57:06.160Z,1001.97
2018-05-09T02:57:32.324Z,1001.93
2018-05-09T02:57:58.491Z,1001.97
2018-05-09T02:58:24.629Z,1001.94
2018-05-09T02:58:50.850Z,1002.01
2018-05-09T02:59:16.987Z,1001.98
2018-05-09T02:59:43.149Z,1002
2018-05-09T03:00:09.302Z,1002.03
2018-05-09T03:00:35.448Z,1002.03
2018-05-09T03:01:01.621Z,1001.99
2018-05-09T03:01:27.757Z,1002.02
2018-05-09T03:01:53.894Z,1002.04
2018-05-09T03:02:20.033Z,1001.97
2018-05-09T03:02:46.167Z,1002
2018-05-09T03:03:12.304Z,1002.01
2018-05-09T03:03:38.503Z,1001.99
2018-05-09T03:04:04.639Z,1001.99
2018-05-09T03:04:30.803Z,1002.03
2018-05-09T03:04:56.969Z,1002.01
2018-05-09T03:05:23.102Z,1002.05
2018-05-09T03:05:49.241Z,1002.02
2018-05-09T03:06:15.431Z,1002.04
2018-05-09T03:06:41.570Z,1002.04
2018-05-09T03:07:07.724Z,1002.02
2018-05-09T03:07:33.887Z,1002.02
2018-05-09T03:08:00.045Z,1002.04
2018-05-09T03:08:26.192Z,1002.06
2018-05-09T03:08:52.378Z,1002.05
2018-05-09T03:09:18.525Z,1002.05
2018-05-09T03:09:44.667Z,1002.04
2018-05-09T03:10:10.837Z,1002.03
2018-05-09T03:10:36.993Z,1002.02
2018-05-09T03:11:03.130Z,1002.01
2018-05-09T03:11:29.301Z,1002.02
2018-05-09T03:11:55.459Z,1002.04
2018-05-09T03:12:21.648Z,1002.03
2018-05-09T03:12:47.783Z,1002.01
2018-05-09T03:13:13.953Z,1002.05
2018-05-09T03:13:40.091Z,1002.01
2018-05-09T03:14:06.221Z,1002.06
2018-05-09T03:14:32.394Z,1002.05
2018-05-09T03:14:58.551Z,1002.07
2018-05-09T03:15:24.684Z,1002.05
2018-05-09T03:15:50.835Z,1002.04
2018-05-09T03:16:16.993Z,1002.08
2018-05-09T03:16:43.129Z,1002.03
2018-05-09T03:17:09.273Z,1002.06
2018-05-09T03:17:35.409Z,1002.03
2018-05-09T03:18:01.551Z,1002.01
2018-05-09T03:18:27.687Z,1002.03
2018-05-09T03:18:53.850Z,1002
2018-05-09T03:19:19.990Z,1002.06
2018-05-09T03:19:46.122Z,1002.05
2018-05-09T03:20:12.261Z,1002.03
2018-05-09T03:20:38.449Z,1002
2018-05-09T03:21:04.618Z,1002.01
2018-05-09T03:21:30.756Z,1001.99
2018-05-09T03:21:56.919Z,1001.99
2018-05-09T03:22:23.054Z,1001.99
2018-05-09T03:22:49.194Z,1002.01
2018-05-09T03:23:15.362Z,1001.97
2018-05-09T03:23:41.505Z,1001.98
2018-05-09T03:24:07.644Z,1001.97
2018-05-09T03:24:33.779Z,1001.98
2018-05-09T03:24:59.926Z,1001.95
2018-05-09T03:25:26.091Z,1001.97
2018-05-09T03:25:52.262Z,1001.97
2018-05-09T03:26:18.400Z,1001.99
2018-05-09T03:26:44.539Z,1001.96
2018-05-09T03:27:10.679Z,1001.94
2018-05-09T03:27:36.818Z,1001.96
2018-05-09T03:28:02.963Z,1001.94
2018-05-09T03:28:29.100Z,1001.96
2018-05-09T03:28:55.232Z,1001.96
2018-05-09T03:29:21.368Z,1001.96
2018-05-09T03:29:47.630Z,1001.97
2018-05-09T03:30:13.691Z,1001.97
2018-05-09T03:30:39.876Z,1001.95
2018-05-09T03:31:06.017Z,1001.98
2018-05-09T03:31:32.201Z,1002
2018-05-09T03:31:58.369Z,1001.92
2018-05-09T03:32:24.527Z,1001.98
2018-05-09T03:32:50.683Z,1001.97
2018-05-09T03:33:16.820Z,1001.98
2018-05-09T03:33:42.969Z,1001.96
2018-05-09T03:34:09.112Z,1002
2018-05-09T03:34:35.293Z,1001.99
2018-05-09T03:35:01.424Z,1001.99
2018-05-09T03:35:27.567Z,1001.99
2018-05-09T03:35:53.706Z,1001.98
2018-05-09T03:36:19.849Z,1001.99
2018-05-09T03:36:46.013Z,1001.96
2018-05-09T03:37:12.149Z,1001.99
2018-05-09T03:37:38.313Z,1001.99
2018-05-09T03:38:04.451Z,1001.96
2018-05-09T03:38:30.593Z,1002.02
2018-05-09T03:38:56.725Z,1002
2018-05-09T03:39:22.887Z,1002.02
2018-05-09T03:39:49.030Z,1002.02
2018-05-09T03:40:15.169Z,1001.99
2018-05-09T03:40:41.309Z,1002
2018-05-09T03:41:07.470Z,1002.02
2018-05-09T03:41:33.612Z,1001.96
2018-05-09T03:41:59.868Z,1001.97
2018-05-09T03:42:25.944Z,1001.99
2018-05-09T03:42:52.082Z,1001.98
2018-05-09T03:43:18.224Z,1001.99
2018-05-09T03:43:44.391Z,1001.99
2018-05-09T03:44:10.530Z,1001.98
2018-05-09T03:44:36.691Z,1001.97
2018-05-09T03:45:02.830Z,1001.99
2018-05-09T03:45:28.962Z,1002.01
2018-05-09T03:45:55.109Z,1002
2018-05-09T03:46:21.248Z,1002.01
2018-05-09T03:46:47.385Z,1002
2018-05-09T03:47:13.525Z,1002.02
2018-05-09T03:47:39.660Z,1002.02
2018-05-09T03:48:05.806Z,1002.03
2018-05-09T03:48:31.942Z,1002.06
2018-05-09T03:48:58.100Z,1002.06
2018-05-09T03:49:24.244Z,1002.04
2018-05-09T03:49:50.381Z,1002.06
2018-05-09T03:50:16.527Z,1002.09
2018-05-09T03:50:42.662Z,1002.13
2018-05-09T03:51:08.798Z,1002.09
2018-05-09T03:51:34.937Z,1002.07
2018-05-09T03:52:01.074Z,1002.1
2018-05-09T03:52:27.219Z,1002.11
2018-05-09T03:52:53.362Z,1002.09
2018-05-09T03:53:19.519Z,1002.12
2018-05-09T03:53:45.647Z,1002.08
2018-05-09T03:54:11.790Z,1002.11
2018-05-09T03:54:37.930Z,1002.13
2018-05-09T03:55:04.077Z,1002.1
2018-05-09T03:55:30.220Z,1002.11
2018-05-09T03:55:56.404Z,1002.13
2018-05-09T03:56:22.543Z,1002.12
2018-05-09T03:56:48.688Z,1002.16
2018-05-09T03:57:14.824Z,1002.16
2018-05-09T03:57:40.971Z,1002.15
2018-05-09T03:58:07.105Z,1002.16
2018-05-09T03:58:33.255Z,1002.15
2018-05-09T03:58:59.392Z,1002.19
2018-05-09T03:59:25.592Z,1002.18
2018-05-09T03:59:51.693Z,1002.18
2018-05-09T04:00:17.835Z,1002.17
2018-05-09T04:00:43.967Z,1002.16
2018-05-09T04:01:10.107Z,1002.15
2018-05-09T04:01:36.273Z,1002.15
2018-05-09T04:02:02.432Z,1002.17
2018-05-09T04:02:28.570Z,1002.16
2018-05-09T04:02:54.709Z,1002.18
2018-05-09T04:03:20.879Z,1002.17
2018-05-09T04:03:47.015Z,1002.14
2018-05-09T04:04:13.153Z,1002.17
2018-05-09T04:04:39.294Z,1002.19
2018-05-09T04:05:05.427Z,1002.18
2018-05-09T04:05:31.559Z,1002.17
2018-05-09T04:05:57.706Z,1002.18
2018-05-09T04:06:23.871Z,1002.19
2018-05-09T04:06:50.011Z,1002.17
2018-05-09T04:07:16.147Z,1002.19
2018-05-09T04:07:42.291Z,1002.19
2018-05-09T04:08:08.456Z,1002.15
2018-05-09T04:08:34.621Z,1002.19
2018-05-09T04:09:00.763Z,1002.17
2018-05-09T04:09:26.984Z,1002.19
2018-05-09T04:09:53.052Z,1002.18
2018-05-09T04:10:19.197Z,1002.18
2018-05-09T04:10:45.334Z,1002.22
2018-05-09T04:11:11.471Z,1002.18
2018-05-09T04:11:37.617Z,1002.18
2018-05-09T04:12:03.756Z,1002.15
2018-05-09T04:12:29.889Z,1002.19
2018-05-09T04:12:56.054Z,1002.22
2018-05-09T04:13:22.222Z,1002.23
2018-05-09T04:13:48.395Z,1002.22
2018-05-09T04:14:14.551Z,1002.18
2018-05-09T04:14:40.697Z,1002.19
2018-05-09T04:15:06.836Z,1002.2
2018-05-09T04:15:32.974Z,1002.17
2018-05-09T04:15:59.141Z,1002.17
2018-05-09T04:16:25.281Z,1002.17
2018-05-09T04:16:51.452Z,1002.17
2018-05-09T04:17:17.598Z,1002.19
2018-05-09T04:17:43.737Z,1002.17
2018-05-09T04:18:09.872Z,1002.15
2018-05-09T04:18:36.012Z,1002.14
2018-05-09T04:19:02.150Z,1002.19
2018-05-09T04:19:28.290Z,1002.18
2018-05-09T04:19:54.423Z,1002.23
2018-05-09T04:20:20.560Z,1002.2
2018-05-09T04:20:46.798Z,1002.21
2018-05-09T04:21:12.894Z,1002.22
2018-05-09T04:21:39.035Z,1002.2
2018-05-09T04:22:05.173Z,1002.21
2018-05-09T04:22:31.311Z,1002.21
2018-05-09T04:22:57.467Z,1002.2
2018-05-09T04:23:23.605Z,1002.24
2018-05-09T04:23:49.743Z,1002.22
2018-05-09T04:24:15.906Z,1002.22
2018-05-09T04:24:42.067Z,1002.23
2018-05-09T04:25:08.206Z,1002.24
2018-05-09T04:25:34.347Z,1002.23
2018-05-09T04:26:00.488Z,1002.27
2018-05-09T04:26:26.624Z,1002.27
2018-05-09T04:26:52.764Z,1002.25
2018-05-09T04:27:18.904Z,1002.25
2018-05-09T04:27:45.039Z,1002.27
2018-05-09T04:28:11.231Z,1002.28
2018-05-09T04:28:37.344Z,1002.26
2018-05-09T04:29:03.483Z,1002.28
2018-05-09T04:29:29.626Z,1002.28
2018-05-09T04:29:55.818Z,1002.29
2018-05-09T04:30:21.980Z,1002.29
2018-05-09T04:30:48.123Z,1002.28
2018-05-09T04:31:14.291Z,1002.32
2018-05-09T04:31:40.429Z,1002.28
2018-05-09T04:32:06.566Z,1002.32
2018-05-09T04:32:32.705Z,1002.3
2018-05-09T04:32:58.844Z,1002.32
2018-05-09T04:33:24.996Z,1002.35
2018-05-09T04:33:51.127Z,1002.35
2018-05-09T04:34:17.267Z,1002.33
2018-05-09T04:34:43.427Z,1002.35
2018-05-09T04:35:09.596Z,1002.31
2018-05-09T04:35:35.733Z,1002.35
2018-05-09T04:36:01.875Z,1002.36
2018-05-09T04:36:28.035Z,1002.37
2018-05-09T04:36:54.174Z,1002.37
2018-05-09T04:37:20.317Z,1002.35
2018-05-09T04:37:46.447Z,1002.39
2018-05-09T04:38:12.590Z,1002.4
2018-05-09T04:38:38.777Z,1002.39
2018-05-09T04:39:04.915Z,1002.42
2018-05-09T04:39:31.056Z,1002.43
2018-05-09T04:39:57.189Z,1002.42
2018-05-09T04:40:23.327Z,1002.44
2018-05-09T04:40:49.485Z,1002.46
2018-05-09T04:41:15.652Z,1002.45
2018-05-09T04:41:41.849Z,1002.48
2018-05-09T04:42:08.019Z,1002.48
2018-05-09T04:42:34.148Z,1002.48
2018-05-09T04:43:00.296Z,1002.47
2018-05-09T04:43:26.433Z,1002.47
2018-05-09T04:43:52.574Z,1002.45
2018-05-09T04:44:18.719Z,1002.46
2018-05-09T04:44:44.854Z,1002.45
2018-05-09T04:45:11.019Z,1002.46
2018-05-09T04:45:37.153Z,1002.42
2018-05-09T04:46:03.294Z,1002.37
2018-05-09T04:46:29.435Z,1002.43
2018-05-09T04:46:55.573Z,1002.4
2018-05-09T04:47:21.716Z,1002.4
2018-05-09T04:47:47.902Z,1002.39
2018-05-09T04:48:14.037Z,1002.37
2018-05-09T04:48:40.181Z,1002.38
2018-05-09T04:49:06.365Z,1002.37
2018-05-09T04:49:32.495Z,1002.38
2018-05-09T04:49:58.632Z,1002.31
2018-05-09T04:50:24.776Z,1002.38
2018-05-09T04:50:50.917Z,1002.42
2018-05-09T04:51:17.059Z,1002.41
2018-05-09T04:51:43.194Z,1002.43
2018-05-09T04:52:09.335Z,1002.42
2018-05-09T04:52:35.477Z,1002.45
2018-05-09T04:53:01.616Z,1002.45
2018-05-09T04:53:27.757Z,1002.45
2018-05-09T04:53:53.891Z,1002.41
2018-05-09T04:54:20.032Z,1002.44
2018-05-09T04:54:46.170Z,1002.45
2018-05-09T04:55:12.319Z,1002.44
2018-05-09T04:55:38.621Z,1002.41
2018-05-09T04:56:04.606Z,1002.44
2018-05-09T04:56:30.739Z,1002.43
2018-05-09T04:56:56.917Z,1002.43
2018-05-09T04:57:23.053Z,1002.44
2018-05-09T04:57:49.201Z,1002.41
2018-05-09T04:58:15.342Z,1002.42
2018-05-09T04:58:41.504Z,1002.41
2018-05-09T04:59:07.682Z,1002.4
2018-05-09T04:59:33.820Z,1002.38
2018-05-09T04:59:59.959Z,1002.36
2018-05-09T05:00:26.095Z,1002.35
2018-05-09T05:00:52.241Z,1002.38
2018-05-09T05:01:18.381Z,1002.37
2018-05-09T05:01:44.548Z,1002.41
2018-05-09T05:02:10.695Z,1002.37
2018-05-09T05:02:36.831Z,1002.38
2018-05-09T05:03:02.972Z,1002.35
2018-05-09T05:03:29.115Z,1002.38
2018-05-09T05:03:55.257Z,1002.38
2018-05-09T05:04:21.396Z,1002.37
2018-05-09T05:04:47.541Z,1002.4
2018-05-09T05:05:13.698Z,1002.39
2018-05-09T05:05:39.835Z,1002.38
2018-05-09T05:06:05.975Z,1002.37
2018-05-09T05:06:32.112Z,1002.37
2018-05-09T05:06:58.303Z,1002.35
2018-05-09T05:07:24.435Z,1002.37
2018-05-09T05:07:50.605Z,1002.41
2018-05-09T05:08:16.746Z,1002.38
2018-05-09T05:08:42.911Z,1002.36
2018-05-09T05:09:09.042Z,1002.39
2018-05-09T05:09:35.207Z,1002.4
2018-05-09T05:10:01.351Z,1002.38
2018-05-09T05:10:27.507Z,1002.37
2018-05-09T05:10:53.675Z,1002.37
2018-05-09T05:11:19.812Z,1002.34
2018-05-09T05:11:45.957Z,1002.41
2018-05-09T05:12:12.112Z,1002.43
2018-05-09T05:12:38.249Z,1002.42
2018-05-09T05:13:04.413Z,1002.39
2018-05-09T05:13:30.561Z,1002.37
2018-05-09T05:13:56.725Z,1002.42
2018-05-09T05:14:22.867Z,1002.4
2018-05-09T05:14:49.002Z,1002.44
2018-05-09T05:15:15.141Z,1002.43
2018-05-09T05:15:41.306Z,1002.43
2018-05-09T05:16:07.412Z,1002.4
2018-05-09T05:16:33.589Z,1002.43
2018-05-09T05:16:59.744Z,1002.41
2018-05-09T05:17:25.884Z,1002.4